Flight Track Log - Related Links

Times and Time Zones

All times are in EDT time to prevent confusion due to time zone crossing. See the ASQ6188 flight status page for this flight to view local times or setup timezone preferences in your user account.

Time Position Orientation Groundspeed Altitude Reporting Facility
EDT Latitude Longitude Course Direction KTS MPH feet Rate Location/Type
Thu 04:16:07 PM 38.4219 -81.6861 330° Northwest 216 249 4,600  Level Indianapolis Center
Thu 04:17:09 PM 38.4722 -81.7381 321° Northwest 228 262 7,400 2,565 Climbing Indianapolis Center
Thu 04:18:11 PM 38.5239 -81.7903 322° Northwest 234 269 9,900 1,645 Climbing Indianapolis Center
Thu 04:19:13 PM 38.5850 -81.8508 322° Northwest 276 318 10,800 1,355 Climbing Indianapolis Center
Thu 04:20:00 PM 39.0184 -82.3689 314° West  Level FlightAware Approximate
Thu 04:20:15 PM 38.6561 -81.9250 321° Northwest 322 371 12,700  Level Indianapolis Center
Thu 04:21:18 PM 38.7292 -82.0006 321° Northwest 333 383 14,400 1,584 Climbing Indianapolis Center
Thu 04:22:20 PM 38.8011 -82.0858 317° Northwest 349 402 16,000 1,403 Climbing Indianapolis Center
Thu 04:23:22 PM 38.8719 -82.1769 315° West 358 412 17,300 1,306 Climbing Indianapolis Center
Thu 04:24:24 PM 38.9606 -82.2892 315° West 371 427 18,700 1,258 Climbing Indianapolis Center
Thu 04:25:26 PM 39.0361 -82.3883 314° West 385 443 19,900 1,113 Climbing Indianapolis Center
Thu 04:26:28 PM 39.1139 -82.4881 315° West 393 452 21,000 629 Climbing Indianapolis Center
Thu 04:27:30 PM 39.2028 -82.6014 315° West 418 481 21,200 387 Climbing Indianapolis Center
Thu 04:28:32 PM 39.2892 -82.7136 315° West 435 501 21,800 823 Climbing Indianapolis Center
Thu 04:29:34 PM 39.3747 -82.8272 314° West 436 502 22,900 871 Climbing Indianapolis Center
Thu 04:30:36 PM 39.4619 -82.9392 315° West 439 505 23,600 823 Climbing Indianapolis Center
Thu 04:31:38 PM 39.5469 -83.0525 314° West 436 502 24,600 1,016 Climbing Indianapolis Center
Thu 04:32:40 PM 39.6325 -83.1653 315° West 435 501 25,700 677 Climbing Indianapolis Center
Thu 04:33:42 PM 39.7331 -83.2978 315° West 439 505 26,000 145 Climbing Indianapolis Center
Thu 04:34:44 PM 39.8161 -83.4078 315° West 455 524 26,000  Level Indianapolis Center
Thu 04:35:46 PM 39.9081 -83.5306 314° West 470 541 26,000  Level Indianapolis Center
Thu 04:36:48 PM 40.0025 -83.6578 314° West 476 548 26,000  Level Indianapolis Center
Thu 04:37:50 PM 40.1111 -83.8050 314° West 478 550 26,000  Level Indianapolis Center
Thu 04:38:52 PM 40.2042 -83.9306 314° West 478 550 26,000  Level Indianapolis Center
Thu 04:39:54 PM 40.2969 -84.0578 314° West 479 551 26,000  Level Indianapolis Center
Thu 04:41:00 PM 40.3619 -84.1668 308° West  Level FlightAware Approximate
Thu 04:44:25 PM 40.6619 -84.6583 308° West 478 550 26,000  Level Chicago Center
Thu 04:45:27 PM 40.7453 -84.7953 301° West 479 551 26,000  Level Chicago Center
Thu 04:46:29 PM 40.8286 -84.9736 302° West 474 545 26,000  Level Chicago Center
Thu 04:47:00 PM 40.7546 -84.8751 301° West  Level Estimated
Thu 04:47:31 PM 40.8936 -85.1239 300° West 474 545 26,000  Level Chicago Center
Thu 04:48:00 PM 40.7752 -84.8633 309° West  Level FlightAware Approximate
Thu 04:48:33 PM 40.9558 -85.2700 299° West 461 531 26,000  Level Chicago Center
Thu 04:49:00 PM 40.8348 -84.9625 308° West  Level FlightAware Approximate
Thu 04:49:35 PM 41.0161 -85.4069 300° West 438 504 25,400  Level Chicago Center
Thu 04:50:37 PM 41.0764 -85.5494 299° West 442 509 25,000 -194 Descending Chicago Center
Thu 04:51:39 PM 41.1358 -85.6886 300° West 434 499 25,000  Level Chicago Center
Thu 04:52:42 PM 41.1958 -85.8311 299° West 438 504 25,000 -144 Level Chicago Center
Thu 04:53:44 PM 41.2686 -86.0028 299° West 442 509 24,700 -629 Descending Chicago Center
Thu 04:54:46 PM 41.3119 -86.1533 291° West 439 505 23,700 -1,113 Descending Chicago Center
Thu 04:55:48 PM 41.3508 -86.3047 289° West 435 501 22,400 -1,694 Descending Chicago Center
Thu 04:56:50 PM 41.3878 -86.4528 288° West 425 489 20,200 -2,226 Descending Chicago Center
Thu 04:57:52 PM 41.4214 -86.5894 288° West 402 463 17,800 -2,400 Descending Chicago Center
Thu 04:58:55 PM 41.4622 -86.7514 289° West 389 448 15,200 -1,742 Descending Chicago Center
Thu 04:59:56 PM 41.4953 -86.8822 289° West 378 435 14,200 -927 Descending Chicago Center
Thu 05:00:58 PM 41.5253 -87.0100 287° West 368 423 13,300 -919 Descending Chicago Center
Thu 05:02:00 PM 41.5569 -87.1408 288° West 371 427 12,300 -780 Descending Chicago Center
Thu 05:02:38 PM 41.5833 -87.2333 291° West 369 425 12,000 -306 Descending Chicago TRACON
Thu 05:03:38 PM 41.6500 -87.3500 307° West 377 434 11,800 -276 Descending Chicago TRACON
Thu 05:04:05 PM 41.6731 -87.3967 303° West 374 430 11,600 -539 Descending Chicago Center
Thu 05:05:07 PM 41.7239 -87.5189 299° West 377 434 11,000 -581 Descending Chicago Center
Thu 05:06:09 PM 41.7731 -87.6303 301° West 354 407 10,400 -684 Descending Chicago Center
Thu 05:06:26 PM 41.7833 -87.6667 291° West 304 350 10,100 -1,169 Descending Chicago TRACON
Thu 05:07:26 PM 41.8167 -87.7667 294° West 289 333 8,900 -1,158 Descending Chicago TRACON
Thu 05:08:20 PM 41.8167 -87.8500 270° West 278 320 7,900 -1,156 Descending Chicago TRACON
Thu 05:09:15 PM 41.7994 -87.9303 254° West 246 283 6,800 -1,179 Descending Chicago Center
Thu 05:10:17 PM 41.8067 -88.0119 277° West 242 278 5,600 -1,161 Descending Chicago Center
Thu 05:11:19 PM 41.8542 -88.0497 329° Northwest 233 268 4,400 -1,210 Descending Chicago Center
Thu 05:12:21 PM 41.8803 -87.9903 59° Northeast 201 231 3,100 -1,279 Descending Chicago Center
Thu 05:13:21 PM 41.9167 -87.9500 39° Northeast 136 157 1,800 -1,053 Descending Chicago TRACON
Thu 05:14:15 PM 41.9333 -87.9167 56° Northeast 121 139 1,100 -778 Descending Chicago TRACON
Thu 05:16:00 PM 41.9667 -87.9000 323° Northwest  Level FlightAware Approximate

Login

Don't have an account? Register now (free) for customized features, flight alerts, and more!